Terminal Aerodrome Forecast
Issued by NWS

Home | Current Version | Previous Version | Text Only | Print | Product List | Glossary Off
Versions: 1 2 3 4 5 6 7 8 9 10 11 12 13 14 15 16

000
FTUS43 KGRB 152300
TAFMTW
TAF
KMTW 152337Z 1600/1624 28005KT P6SM FEW025 SCT050
     FM160300 28003KT P6SM FEW050
      TEMPO 1608/1612 2SM BR
     FM161600 28008G13KT P6SM SCT035=

USA.gov is the U.S. government's official web portal to all federal, state and local government web resources and services.